sensor_id;sensor_type;location;lat;lon;timestamp;P1;durP1;ratioP1;P2;durP2;ratioP2
13085;SDS011;6609;49.882;8.664;2023-11-19T00:00:16;4.47;;;2.70;;
13085;SDS011;6609;49.882;8.664;2023-11-19T00:02:44;6.67;;;4.30;;
13085;SDS011;6609;49.882;8.664;2023-11-19T00:05:12;5.03;;;3.60;;
13085;SDS011;6609;49.882;8.664;2023-11-19T00:07:39;4.87;;;3.57;;
13085;SDS011;6609;49.882;8.664;2023-11-19T00:10:08;7.87;;;3.63;;
13085;SDS011;6609;49.882;8.664;2023-11-19T00:12:36;7.17;;;4.10;;
13085;SDS011;6609;49.882;8.664;2023-11-19T00:15:04;5.13;;;3.47;;
13085;SDS011;6609;49.882;8.664;2023-11-19T00:17:34;5.60;;;4.07;;
13085;SDS011;6609;49.882;8.664;2023-11-19T00:20:01;4.53;;;3.17;;
13085;SDS011;6609;49.882;8.664;2023-11-19T00:22:30;3.53;;;2.60;;
13085;SDS011;6609;49.882;8.664;2023-11-19T00:24:58;4.47;;;2.80;;
13085;SDS011;6609;49.882;8.664;2023-11-19T00:27:26;3.70;;;2.97;;
13085;SDS011;6609;49.882;8.664;2023-11-19T00:29:53;5.23;;;3.37;;
13085;SDS011;6609;49.882;8.664;2023-11-19T00:32:20;3.93;;;2.53;;
13085;SDS011;6609;49.882;8.664;2023-11-19T00:34:47;4.97;;;2.90;;
13085;SDS011;6609;49.882;8.664;2023-11-19T00:37:14;4.17;;;2.80;;
13085;SDS011;6609;49.882;8.664;2023-11-19T00:39:41;4.17;;;2.53;;
13085;SDS011;6609;49.882;8.664;2023-11-19T00:42:08;5.67;;;3.13;;
13085;SDS011;6609;49.882;8.664;2023-11-19T00:44:37;2.73;;;2.33;;
13085;SDS011;6609;49.882;8.664;2023-11-19T00:47:04;5.17;;;3.00;;
13085;SDS011;6609;49.882;8.664;2023-11-19T00:49:31;4.23;;;2.40;;
13085;SDS011;6609;49.882;8.664;2023-11-19T00:51:58;4.30;;;3.20;;
13085;SDS011;6609;49.882;8.664;2023-11-19T00:54:25;3.43;;;2.40;;
13085;SDS011;6609;49.882;8.664;2023-11-19T00:56:52;4.37;;;2.47;;
13085;SDS011;6609;49.882;8.664;2023-11-19T00:59:19;4.27;;;3.00;;
13085;SDS011;6609;49.882;8.664;2023-11-19T01:01:48;3.13;;;2.53;;
13085;SDS011;6609;49.882;8.664;2023-11-19T01:04:16;3.37;;;2.80;;
13085;SDS011;6609;49.882;8.664;2023-11-19T01:06:44;5.23;;;3.30;;
13085;SDS011;6609;49.882;8.664;2023-11-19T01:09:11;4.60;;;3.00;;
13085;SDS011;6609;49.882;8.664;2023-11-19T01:11:37;4.17;;;2.90;;
13085;SDS011;6609;49.882;8.664;2023-11-19T01:14:04;4.43;;;2.80;;
13085;SDS011;6609;49.882;8.664;2023-11-19T01:16:31;3.97;;;2.50;;
13085;SDS011;6609;49.882;8.664;2023-11-19T01:19:00;6.80;;;3.10;;
13085;SDS011;6609;49.882;8.664;2023-11-19T01:21:29;5.30;;;3.23;;
13085;SDS011;6609;49.882;8.664;2023-11-19T01:23:57;6.97;;;3.30;;
13085;SDS011;6609;49.882;8.664;2023-11-19T01:26:24;4.70;;;2.83;;
13085;SDS011;6609;49.882;8.664;2023-11-19T01:28:51;4.67;;;2.87;;
13085;SDS011;6609;49.882;8.664;2023-11-19T01:31:18;3.50;;;2.47;;
13085;SDS011;6609;49.882;8.664;2023-11-19T01:33:45;3.47;;;2.37;;
13085;SDS011;6609;49.882;8.664;2023-11-19T01:36:14;4.53;;;2.80;;
13085;SDS011;6609;49.882;8.664;2023-11-19T01:38:40;5.77;;;2.60;;
13085;SDS011;6609;49.882;8.664;2023-11-19T01:41:08;6.23;;;2.90;;
13085;SDS011;6609;49.882;8.664;2023-11-19T01:43:36;3.07;;;2.30;;
13085;SDS011;6609;49.882;8.664;2023-11-19T01:46:04;3.23;;;2.33;;
13085;SDS011;6609;49.882;8.664;2023-11-19T01:48:32;2.97;;;2.03;;
13085;SDS011;6609;49.882;8.664;2023-11-19T01:51:00;2.87;;;2.00;;
13085;SDS011;6609;49.882;8.664;2023-11-19T01:53:29;2.53;;;1.90;;
13085;SDS011;6609;49.882;8.664;2023-11-19T01:55:56;2.67;;;1.87;;
13085;SDS011;6609;49.882;8.664;2023-11-19T01:58:24;2.87;;;2.10;;
13085;SDS011;6609;49.882;8.664;2023-11-19T02:00:51;3.77;;;2.37;;
13085;SDS011;6609;49.882;8.664;2023-11-19T02:03:17;4.97;;;2.50;;
13085;SDS011;6609;49.882;8.664;2023-11-19T02:05:46;2.70;;;1.90;;
13085;SDS011;6609;49.882;8.664;2023-11-19T02:08:15;1.63;;;1.53;;
13085;SDS011;6609;49.882;8.664;2023-11-19T02:10:44;3.10;;;2.17;;
13085;SDS011;6609;49.882;8.664;2023-11-19T02:13:10;2.67;;;1.90;;
13085;SDS011;6609;49.882;8.664;2023-11-19T02:15:38;3.33;;;1.90;;
13085;SDS011;6609;49.882;8.664;2023-11-19T02:18:18;2.13;;;1.17;;
13085;SDS011;6609;49.882;8.664;2023-11-19T02:20:52;2.57;;;1.80;;
13085;SDS011;6609;49.882;8.664;2023-11-19T02:23:19;3.47;;;1.50;;
13085;SDS011;6609;49.882;8.664;2023-11-19T02:25:50;3.73;;;1.90;;
13085;SDS011;6609;49.882;8.664;2023-11-19T02:28:24;1.97;;;1.63;;
13085;SDS011;6609;49.882;8.664;2023-11-19T02:30:52;2.60;;;1.80;;
13085;SDS011;6609;49.882;8.664;2023-11-19T02:33:19;2.10;;;1.67;;
13085;SDS011;6609;49.882;8.664;2023-11-19T02:35:45;3.83;;;2.27;;
13085;SDS011;6609;49.882;8.664;2023-11-19T02:38:12;2.70;;;1.90;;
13085;SDS011;6609;49.882;8.664;2023-11-19T02:40:41;2.67;;;1.70;;
13085;SDS011;6609;49.882;8.664;2023-11-19T02:43:08;2.30;;;1.37;;
13085;SDS011;6609;49.882;8.664;2023-11-19T02:45:36;3.07;;;1.33;;
13085;SDS011;6609;49.882;8.664;2023-11-19T02:48:03;1.97;;;1.40;;
13085;SDS011;6609;49.882;8.664;2023-11-19T02:50:31;2.43;;;1.70;;
13085;SDS011;6609;49.882;8.664;2023-11-19T02:52:58;2.00;;;1.33;;
13085;SDS011;6609;49.882;8.664;2023-11-19T02:55:26;1.40;;;1.20;;
13085;SDS011;6609;49.882;8.664;2023-11-19T02:57:55;2.43;;;1.53;;
13085;SDS011;6609;49.882;8.664;2023-11-19T03:00:24;2.20;;;1.47;;
13085;SDS011;6609;49.882;8.664;2023-11-19T03:03:00;2.00;;;1.40;;
13085;SDS011;6609;49.882;8.664;2023-11-19T03:05:42;3.43;;;1.63;;
13085;SDS011;6609;49.882;8.664;2023-11-19T03:08:11;1.30;;;1.00;;
13085;SDS011;6609;49.882;8.664;2023-11-19T03:10:38;1.57;;;1.20;;
13085;SDS011;6609;49.882;8.664;2023-11-19T03:13:05;2.17;;;1.57;;
13085;SDS011;6609;49.882;8.664;2023-11-19T03:15:38;2.67;;;1.80;;
13085;SDS011;6609;49.882;8.664;2023-11-19T03:18:06;2.67;;;1.13;;
13085;SDS011;6609;49.882;8.664;2023-11-19T03:20:33;3.03;;;1.83;;
13085;SDS011;6609;49.882;8.664;2023-11-19T03:22:59;3.60;;;1.70;;
13085;SDS011;6609;49.882;8.664;2023-11-19T03:25:27;2.27;;;1.23;;
13085;SDS011;6609;49.882;8.664;2023-11-19T03:27:58;3.63;;;1.60;;
13085;SDS011;6609;49.882;8.664;2023-11-19T03:30:26;8.13;;;1.70;;
13085;SDS011;6609;49.882;8.664;2023-11-19T03:32:53;2.67;;;1.83;;
13085;SDS011;6609;49.882;8.664;2023-11-19T03:35:21;2.63;;;1.77;;
13085;SDS011;6609;49.882;8.664;2023-11-19T03:37:48;4.50;;;1.90;;
13085;SDS011;6609;49.882;8.664;2023-11-19T03:40:15;3.03;;;1.40;;
13085;SDS011;6609;49.882;8.664;2023-11-19T03:42:42;2.33;;;1.60;;
13085;SDS011;6609;49.882;8.664;2023-11-19T03:45:09;2.00;;;1.50;;
13085;SDS011;6609;49.882;8.664;2023-11-19T03:47:36;3.27;;;2.03;;
13085;SDS011;6609;49.882;8.664;2023-11-19T03:50:04;1.83;;;1.60;;
13085;SDS011;6609;49.882;8.664;2023-11-19T03:52:33;2.93;;;1.57;;
13085;SDS011;6609;49.882;8.664;2023-11-19T03:55:00;2.50;;;1.93;;
13085;SDS011;6609;49.882;8.664;2023-11-19T03:57:27;2.20;;;1.77;;
13085;SDS011;6609;49.882;8.664;2023-11-19T03:59:54;2.20;;;1.67;;
13085;SDS011;6609;49.882;8.664;2023-11-19T04:02:23;2.70;;;1.83;;
13085;SDS011;6609;49.882;8.664;2023-11-19T04:04:53;1.97;;;1.63;;
13085;SDS011;6609;49.882;8.664;2023-11-19T04:07:20;3.67;;;2.37;;
13085;SDS011;6609;49.882;8.664;2023-11-19T04:09:48;3.60;;;2.50;;
13085;SDS011;6609;49.882;8.664;2023-11-19T04:12:16;2.40;;;2.07;;
13085;SDS011;6609;49.882;8.664;2023-11-19T04:14:43;4.07;;;2.23;;
13085;SDS011;6609;49.882;8.664;2023-11-19T04:17:10;5.07;;;2.10;;
13085;SDS011;6609;49.882;8.664;2023-11-19T04:19:37;3.77;;;2.13;;
13085;SDS011;6609;49.882;8.664;2023-11-19T04:22:06;3.13;;;2.20;;
13085;SDS011;6609;49.882;8.664;2023-11-19T04:24:33;5.00;;;2.37;;
13085;SDS011;6609;49.882;8.664;2023-11-19T04:27:01;3.90;;;2.40;;
13085;SDS011;6609;49.882;8.664;2023-11-19T04:29:29;2.50;;;2.00;;
13085;SDS011;6609;49.882;8.664;2023-11-19T04:31:56;4.57;;;2.50;;
13085;SDS011;6609;49.882;8.664;2023-11-19T04:34:26;2.90;;;2.10;;
13085;SDS011;6609;49.882;8.664;2023-11-19T04:36:53;2.93;;;1.87;;
13085;SDS011;6609;49.882;8.664;2023-11-19T04:39:20;3.73;;;2.17;;
13085;SDS011;6609;49.882;8.664;2023-11-19T04:41:47;3.40;;;2.40;;
13085;SDS011;6609;49.882;8.664;2023-11-19T04:44:16;2.53;;;2.03;;
13085;SDS011;6609;49.882;8.664;2023-11-19T04:46:43;2.67;;;1.90;;
13085;SDS011;6609;49.882;8.664;2023-11-19T04:49:10;2.00;;;1.60;;
13085;SDS011;6609;49.882;8.664;2023-11-19T04:51:38;2.20;;;1.83;;
13085;SDS011;6609;49.882;8.664;2023-11-19T04:54:06;2.20;;;1.60;;
13085;SDS011;6609;49.882;8.664;2023-11-19T04:56:33;3.80;;;2.67;;
13085;SDS011;6609;49.882;8.664;2023-11-19T04:59:01;2.73;;;2.20;;
13085;SDS011;6609;49.882;8.664;2023-11-19T05:01:30;2.97;;;2.50;;
13085;SDS011;6609;49.882;8.664;2023-11-19T05:03:57;5.40;;;2.77;;
13085;SDS011;6609;49.882;8.664;2023-11-19T05:06:25;3.13;;;2.57;;
13085;SDS011;6609;49.882;8.664;2023-11-19T05:08:53;3.47;;;2.70;;
13085;SDS011;6609;49.882;8.664;2023-11-19T05:11:20;4.80;;;3.30;;
13085;SDS011;6609;49.882;8.664;2023-11-19T05:13:46;3.67;;;2.80;;
13085;SDS011;6609;49.882;8.664;2023-11-19T05:16:13;3.87;;;2.27;;
13085;SDS011;6609;49.882;8.664;2023-11-19T05:18:42;3.97;;;3.17;;
13085;SDS011;6609;49.882;8.664;2023-11-19T05:21:08;3.43;;;2.93;;
13085;SDS011;6609;49.882;8.664;2023-11-19T05:23:36;4.83;;;3.27;;
13085;SDS011;6609;49.882;8.664;2023-11-19T05:26:03;4.10;;;2.87;;
13085;SDS011;6609;49.882;8.664;2023-11-19T05:28:30;4.30;;;3.10;;
13085;SDS011;6609;49.882;8.664;2023-11-19T05:30:57;4.90;;;2.70;;
13085;SDS011;6609;49.882;8.664;2023-11-19T05:33:24;2.57;;;2.30;;
13085;SDS011;6609;49.882;8.664;2023-11-19T05:35:52;4.57;;;3.57;;
13085;SDS011;6609;49.882;8.664;2023-11-19T05:38:19;4.50;;;2.93;;
13085;SDS011;6609;49.882;8.664;2023-11-19T05:40:46;3.97;;;3.33;;
13085;SDS011;6609;49.882;8.664;2023-11-19T05:43:14;3.57;;;2.70;;
13085;SDS011;6609;49.882;8.664;2023-11-19T05:45:41;5.13;;;3.50;;
13085;SDS011;6609;49.882;8.664;2023-11-19T05:48:08;5.47;;;2.87;;
13085;SDS011;6609;49.882;8.664;2023-11-19T05:50:35;4.80;;;2.93;;
13085;SDS011;6609;49.882;8.664;2023-11-19T05:53:04;3.70;;;3.13;;
13085;SDS011;6609;49.882;8.664;2023-11-19T05:55:34;4.73;;;3.27;;
13085;SDS011;6609;49.882;8.664;2023-11-19T05:58:01;4.43;;;3.13;;
13085;SDS011;6609;49.882;8.664;2023-11-19T06:00:28;3.33;;;2.63;;
13085;SDS011;6609;49.882;8.664;2023-11-19T06:02:55;4.47;;;3.07;;
13085;SDS011;6609;49.882;8.664;2023-11-19T06:05:22;4.80;;;2.70;;
13085;SDS011;6609;49.882;8.664;2023-11-19T06:07:49;5.50;;;3.67;;
13085;SDS011;6609;49.882;8.664;2023-11-19T06:10:17;3.33;;;2.63;;
13085;SDS011;6609;49.882;8.664;2023-11-19T06:12:45;3.90;;;2.70;;
13085;SDS011;6609;49.882;8.664;2023-11-19T06:15:12;3.90;;;2.97;;
13085;SDS011;6609;49.882;8.664;2023-11-19T06:17:39;6.07;;;3.00;;
13085;SDS011;6609;49.882;8.664;2023-11-19T06:20:07;4.60;;;2.67;;
13085;SDS011;6609;49.882;8.664;2023-11-19T06:22:34;7.37;;;3.10;;
13085;SDS011;6609;49.882;8.664;2023-11-19T06:25:01;3.90;;;2.60;;
13085;SDS011;6609;49.882;8.664;2023-11-19T06:27:33;9.53;;;2.80;;
13085;SDS011;6609;49.882;8.664;2023-11-19T06:30:00;4.80;;;2.70;;
13085;SDS011;6609;49.882;8.664;2023-11-19T06:32:27;5.73;;;2.50;;
13085;SDS011;6609;49.882;8.664;2023-11-19T06:34:54;4.23;;;2.73;;
13085;SDS011;6609;49.882;8.664;2023-11-19T06:37:22;6.20;;;3.10;;
13085;SDS011;6609;49.882;8.664;2023-11-19T06:39:49;4.47;;;3.37;;
13085;SDS011;6609;49.882;8.664;2023-11-19T06:42:15;5.47;;;2.97;;
13085;SDS011;6609;49.882;8.664;2023-11-19T06:44:44;4.97;;;3.27;;
13085;SDS011;6609;49.882;8.664;2023-11-19T06:47:11;10.13;;;3.90;;
13085;SDS011;6609;49.882;8.664;2023-11-19T06:49:37;4.57;;;3.70;;
13085;SDS011;6609;49.882;8.664;2023-11-19T06:52:05;4.83;;;3.23;;
13085;SDS011;6609;49.882;8.664;2023-11-19T06:54:32;5.77;;;3.60;;
13085;SDS011;6609;49.882;8.664;2023-11-19T06:56:58;6.40;;;3.40;;
13085;SDS011;6609;49.882;8.664;2023-11-19T06:59:25;6.97;;;3.17;;
13085;SDS011;6609;49.882;8.664;2023-11-19T07:01:53;6.13;;;3.57;;
13085;SDS011;6609;49.882;8.664;2023-11-19T07:04:20;4.27;;;3.07;;
13085;SDS011;6609;49.882;8.664;2023-11-19T07:06:47;4.77;;;3.10;;
13085;SDS011;6609;49.882;8.664;2023-11-19T07:09:14;4.53;;;3.43;;
13085;SDS011;6609;49.882;8.664;2023-11-19T07:11:41;5.53;;;3.27;;
13085;SDS011;6609;49.882;8.664;2023-11-19T07:14:09;3.23;;;2.70;;
13085;SDS011;6609;49.882;8.664;2023-11-19T07:16:36;3.67;;;3.20;;
13085;SDS011;6609;49.882;8.664;2023-11-19T07:19:05;3.93;;;3.37;;
13085;SDS011;6609;49.882;8.664;2023-11-19T07:21:32;4.77;;;3.53;;
13085;SDS011;6609;49.882;8.664;2023-11-19T07:23:59;6.27;;;3.63;;
13085;SDS011;6609;49.882;8.664;2023-11-19T07:26:27;3.80;;;3.20;;
13085;SDS011;6609;49.882;8.664;2023-11-19T07:28:53;6.20;;;3.87;;
13085;SDS011;6609;49.882;8.664;2023-11-19T07:31:21;6.90;;;3.70;;
13085;SDS011;6609;49.882;8.664;2023-11-19T07:33:49;4.70;;;3.37;;
13085;SDS011;6609;49.882;8.664;2023-11-19T07:36:17;4.20;;;3.00;;
13085;SDS011;6609;49.882;8.664;2023-11-19T07:38:45;4.97;;;3.00;;
13085;SDS011;6609;49.882;8.664;2023-11-19T07:41:12;6.27;;;2.70;;
13085;SDS011;6609;49.882;8.664;2023-11-19T07:43:39;4.23;;;2.90;;
13085;SDS011;6609;49.882;8.664;2023-11-19T07:46:12;2.67;;;2.27;;
13085;SDS011;6609;49.882;8.664;2023-11-19T07:48:40;5.27;;;2.43;;
13085;SDS011;6609;49.882;8.664;2023-11-19T07:51:07;6.63;;;2.73;;
13085;SDS011;6609;49.882;8.664;2023-11-19T07:53:35;4.20;;;2.63;;
13085;SDS011;6609;49.882;8.664;2023-11-19T07:56:03;3.93;;;2.50;;
13085;SDS011;6609;49.882;8.664;2023-11-19T07:58:31;5.00;;;3.00;;
13085;SDS011;6609;49.882;8.664;2023-11-19T08:00:58;5.17;;;3.00;;
13085;SDS011;6609;49.882;8.664;2023-11-19T08:03:24;6.53;;;2.23;;
13085;SDS011;6609;49.882;8.664;2023-11-19T08:05:55;2.47;;;1.90;;
13085;SDS011;6609;49.882;8.664;2023-11-19T08:08:22;5.73;;;2.17;;
13085;SDS011;6609;49.882;8.664;2023-11-19T08:10:51;4.20;;;2.60;;
13085;SDS011;6609;49.882;8.664;2023-11-19T08:13:18;4.20;;;2.57;;
13085;SDS011;6609;49.882;8.664;2023-11-19T08:15:45;7.33;;;2.93;;
13085;SDS011;6609;49.882;8.664;2023-11-19T08:18:12;4.20;;;2.17;;
13085;SDS011;6609;49.882;8.664;2023-11-19T08:20:39;6.37;;;2.77;;
13085;SDS011;6609;49.882;8.664;2023-11-19T08:23:07;3.97;;;2.40;;
13085;SDS011;6609;49.882;8.664;2023-11-19T08:25:34;2.73;;;2.27;;
13085;SDS011;6609;49.882;8.664;2023-11-19T08:28:03;6.67;;;2.20;;
13085;SDS011;6609;49.882;8.664;2023-11-19T08:30:30;2.90;;;1.90;;
13085;SDS011;6609;49.882;8.664;2023-11-19T08:32:57;3.10;;;1.47;;
13085;SDS011;6609;49.882;8.664;2023-11-19T08:35:27;4.57;;;2.60;;
13085;SDS011;6609;49.882;8.664;2023-11-19T08:37:54;3.50;;;2.33;;
13085;SDS011;6609;49.882;8.664;2023-11-19T08:40:22;9.90;;;2.17;;
13085;SDS011;6609;49.882;8.664;2023-11-19T08:42:50;3.47;;;2.10;;
13085;SDS011;6609;49.882;8.664;2023-11-19T08:45:18;4.37;;;2.10;;
13085;SDS011;6609;49.882;8.664;2023-11-19T08:47:44;2.87;;;1.87;;
13085;SDS011;6609;49.882;8.664;2023-11-19T08:50:11;7.87;;;2.13;;
13085;SDS011;6609;49.882;8.664;2023-11-19T08:52:38;2.23;;;1.70;;
13085;SDS011;6609;49.882;8.664;2023-11-19T08:55:05;5.73;;;2.00;;
13085;SDS011;6609;49.882;8.664;2023-11-19T08:57:32;4.40;;;2.10;;
13085;SDS011;6609;49.882;8.664;2023-11-19T08:59:59;5.87;;;2.27;;
13085;SDS011;6609;49.882;8.664;2023-11-19T09:02:27;7.50;;;4.70;;
13085;SDS011;6609;49.882;8.664;2023-11-19T09:04:54;4.47;;;2.20;;
13085;SDS011;6609;49.882;8.664;2023-11-19T09:07:21;3.90;;;2.97;;
13085;SDS011;6609;49.882;8.664;2023-11-19T09:09:48;7.93;;;3.03;;
13085;SDS011;6609;49.882;8.664;2023-11-19T09:12:15;6.57;;;2.53;;
13085;SDS011;6609;49.882;8.664;2023-11-19T09:14:42;3.80;;;2.00;;
13085;SDS011;6609;49.882;8.664;2023-11-19T09:17:09;3.47;;;1.90;;
13085;SDS011;6609;49.882;8.664;2023-11-19T09:19:37;5.63;;;2.40;;
13085;SDS011;6609;49.882;8.664;2023-11-19T09:22:04;5.97;;;2.10;;
13085;SDS011;6609;49.882;8.664;2023-11-19T09:24:31;4.00;;;1.90;;
13085;SDS011;6609;49.882;8.664;2023-11-19T09:26:58;3.60;;;2.33;;
13085;SDS011;6609;49.882;8.664;2023-11-19T09:29:25;4.57;;;2.73;;
13085;SDS011;6609;49.882;8.664;2023-11-19T09:31:52;4.33;;;2.43;;
13085;SDS011;6609;49.882;8.664;2023-11-19T09:34:19;5.27;;;2.47;;
13085;SDS011;6609;49.882;8.664;2023-11-19T09:36:47;3.93;;;1.80;;
13085;SDS011;6609;49.882;8.664;2023-11-19T09:39:14;3.13;;;1.83;;
13085;SDS011;6609;49.882;8.664;2023-11-19T09:41:42;4.10;;;2.00;;
13085;SDS011;6609;49.882;8.664;2023-11-19T09:44:10;4.23;;;1.63;;
13085;SDS011;6609;49.882;8.664;2023-11-19T09:46:37;5.07;;;2.07;;
13085;SDS011;6609;49.882;8.664;2023-11-19T09:49:06;5.53;;;2.10;;
13085;SDS011;6609;49.882;8.664;2023-11-19T09:51:34;7.23;;;2.17;;
13085;SDS011;6609;49.882;8.664;2023-11-19T09:54:03;2.80;;;1.60;;
13085;SDS011;6609;49.882;8.664;2023-11-19T09:56:29;5.47;;;2.10;;
13085;SDS011;6609;49.882;8.664;2023-11-19T09:58:57;35.97;;;3.77;;
13085;SDS011;6609;49.882;8.664;2023-11-19T10:01:25;4.83;;;1.97;;
13085;SDS011;6609;49.882;8.664;2023-11-19T10:03:52;5.80;;;1.93;;
13085;SDS011;6609;49.882;8.664;2023-11-19T10:06:21;6.87;;;2.40;;
13085;SDS011;6609;49.882;8.664;2023-11-19T10:08:48;3.60;;;1.97;;
13085;SDS011;6609;49.882;8.664;2023-11-19T10:11:16;3.80;;;2.00;;
13085;SDS011;6609;49.882;8.664;2023-11-19T10:13:43;4.03;;;2.20;;
13085;SDS011;6609;49.882;8.664;2023-11-19T10:16:13;7.17;;;3.13;;
13085;SDS011;6609;49.882;8.664;2023-11-19T10:18:42;5.40;;;2.43;;
13085;SDS011;6609;49.882;8.664;2023-11-19T10:21:10;3.67;;;2.00;;
13085;SDS011;6609;49.882;8.664;2023-11-19T10:23:48;6.97;;;2.13;;
13085;SDS011;6609;49.882;8.664;2023-11-19T10:26:18;6.87;;;2.47;;
13085;SDS011;6609;49.882;8.664;2023-11-19T10:28:45;3.97;;;2.23;;
13085;SDS011;6609;49.882;8.664;2023-11-19T10:31:13;3.57;;;2.00;;
13085;SDS011;6609;49.882;8.664;2023-11-19T10:33:40;2.70;;;1.87;;
13085;SDS011;6609;49.882;8.664;2023-11-19T10:36:07;3.50;;;1.67;;
13085;SDS011;6609;49.882;8.664;2023-11-19T10:38:34;3.97;;;2.07;;
13085;SDS011;6609;49.882;8.664;2023-11-19T10:41:02;3.57;;;1.87;;
13085;SDS011;6609;49.882;8.664;2023-11-19T10:43:30;3.70;;;1.90;;
13085;SDS011;6609;49.882;8.664;2023-11-19T10:46:09;3.27;;;2.03;;
13085;SDS011;6609;49.882;8.664;2023-11-19T10:48:36;6.87;;;2.30;;
13085;SDS011;6609;49.882;8.664;2023-11-19T10:51:06;3.83;;;2.30;;
13085;SDS011;6609;49.882;8.664;2023-11-19T10:53:33;3.77;;;1.70;;
13085;SDS011;6609;49.882;8.664;2023-11-19T10:56:04;2.27;;;1.67;;
13085;SDS011;6609;49.882;8.664;2023-11-19T10:58:35;7.83;;;2.30;;
13085;SDS011;6609;49.882;8.664;2023-11-19T11:01:03;4.90;;;1.93;;
13085;SDS011;6609;49.882;8.664;2023-11-19T11:03:37;3.97;;;1.90;;
13085;SDS011;6609;49.882;8.664;2023-11-19T11:06:06;5.00;;;2.40;;
13085;SDS011;6609;49.882;8.664;2023-11-19T11:08:34;4.50;;;2.23;;
13085;SDS011;6609;49.882;8.664;2023-11-19T11:11:03;4.63;;;2.20;;
13085;SDS011;6609;49.882;8.664;2023-11-19T11:13:32;3.43;;;1.80;;
13085;SDS011;6609;49.882;8.664;2023-11-19T11:16:01;3.37;;;2.00;;
13085;SDS011;6609;49.882;8.664;2023-11-19T11:18:29;6.53;;;1.83;;
13085;SDS011;6609;49.882;8.664;2023-11-19T11:20:59;3.57;;;1.93;;
13085;SDS011;6609;49.882;8.664;2023-11-19T11:26:32;5.43;;;2.13;;
13085;SDS011;6609;49.882;8.664;2023-11-19T11:29:10;5.13;;;1.90;;
13085;SDS011;6609;49.882;8.664;2023-11-19T11:31:44;4.07;;;1.77;;
13085;SDS011;6609;49.882;8.664;2023-11-19T11:37:26;7.13;;;2.33;;
13085;SDS011;6609;49.882;8.664;2023-11-19T11:39:57;2.37;;;1.80;;
13085;SDS011;6609;49.882;8.664;2023-11-19T11:42:31;4.93;;;1.90;;
13085;SDS011;6609;49.882;8.664;2023-11-19T11:44:59;7.13;;;1.90;;
13085;SDS011;6609;49.882;8.664;2023-11-19T11:50:12;5.37;;;2.00;;
13085;SDS011;6609;49.882;8.664;2023-11-19T11:55:23;7.97;;;2.40;;
13085;SDS011;6609;49.882;8.664;2023-11-19T11:57:50;3.73;;;2.23;;
13085;SDS011;6609;49.882;8.664;2023-11-19T12:00:21;5.33;;;2.20;;
13085;SDS011;6609;49.882;8.664;2023-11-19T12:02:48;3.23;;;2.23;;
13085;SDS011;6609;49.882;8.664;2023-11-19T12:05:17;5.50;;;2.67;;
13085;SDS011;6609;49.882;8.664;2023-11-19T12:07:47;6.00;;;2.33;;
13085;SDS011;6609;49.882;8.664;2023-11-19T12:10:22;5.07;;;1.70;;
13085;SDS011;6609;49.882;8.664;2023-11-19T12:12:52;4.83;;;1.80;;
13085;SDS011;6609;49.882;8.664;2023-11-19T12:15:19;5.37;;;1.83;;
13085;SDS011;6609;49.882;8.664;2023-11-19T12:17:50;5.43;;;2.30;;
13085;SDS011;6609;49.882;8.664;2023-11-19T12:20:18;3.87;;;1.60;;
13085;SDS011;6609;49.882;8.664;2023-11-19T12:22:46;3.67;;;1.90;;
13085;SDS011;6609;49.882;8.664;2023-11-19T12:25:15;6.37;;;1.90;;
13085;SDS011;6609;49.882;8.664;2023-11-19T12:27:43;3.57;;;1.73;;
13085;SDS011;6609;49.882;8.664;2023-11-19T12:30:11;7.57;;;1.60;;
13085;SDS011;6609;49.882;8.664;2023-11-19T12:32:39;3.13;;;1.43;;
13085;SDS011;6609;49.882;8.664;2023-11-19T12:35:07;5.73;;;2.33;;
13085;SDS011;6609;49.882;8.664;2023-11-19T12:37:41;5.40;;;1.73;;
13085;SDS011;6609;49.882;8.664;2023-11-19T12:40:15;5.37;;;1.63;;
13085;SDS011;6609;49.882;8.664;2023-11-19T12:42:43;8.00;;;2.37;;
13085;SDS011;6609;49.882;8.664;2023-11-19T12:45:10;9.00;;;1.97;;
13085;SDS011;6609;49.882;8.664;2023-11-19T12:47:37;5.70;;;1.97;;
13085;SDS011;6609;49.882;8.664;2023-11-19T12:50:05;5.53;;;1.70;;
13085;SDS011;6609;49.882;8.664;2023-11-19T12:52:33;4.87;;;1.70;;
13085;SDS011;6609;49.882;8.664;2023-11-19T12:55:01;5.93;;;1.50;;
13085;SDS011;6609;49.882;8.664;2023-11-19T12:57:38;9.40;;;2.17;;
13085;SDS011;6609;49.882;8.664;2023-11-19T13:00:06;5.40;;;2.30;;
13085;SDS011;6609;49.882;8.664;2023-11-19T13:02:45;5.43;;;2.00;;
13085;SDS011;6609;49.882;8.664;2023-11-19T13:05:23;6.63;;;2.00;;
13085;SDS011;6609;49.882;8.664;2023-11-19T13:07:51;4.90;;;2.27;;
13085;SDS011;6609;49.882;8.664;2023-11-19T13:10:25;7.03;;;2.30;;
13085;SDS011;6609;49.882;8.664;2023-11-19T13:13:04;6.57;;;2.57;;
13085;SDS011;6609;49.882;8.664;2023-11-19T13:15:31;6.03;;;1.80;;
13085;SDS011;6609;49.882;8.664;2023-11-19T13:17:58;8.77;;;2.03;;
13085;SDS011;6609;49.882;8.664;2023-11-19T13:20:25;6.27;;;1.73;;
13085;SDS011;6609;49.882;8.664;2023-11-19T13:22:56;5.90;;;2.27;;
13085;SDS011;6609;49.882;8.664;2023-11-19T13:25:23;8.50;;;2.53;;
13085;SDS011;6609;49.882;8.664;2023-11-19T13:27:51;6.07;;;1.93;;
13085;SDS011;6609;49.882;8.664;2023-11-19T13:30:19;7.17;;;1.87;;
13085;SDS011;6609;49.882;8.664;2023-11-19T13:32:47;6.03;;;1.70;;
13085;SDS011;6609;49.882;8.664;2023-11-19T13:35:14;6.10;;;1.97;;
13085;SDS011;6609;49.882;8.664;2023-11-19T13:37:42;8.13;;;1.67;;
13085;SDS011;6609;49.882;8.664;2023-11-19T13:40:09;5.80;;;1.30;;
13085;SDS011;6609;49.882;8.664;2023-11-19T13:42:39;3.30;;;1.77;;
13085;SDS011;6609;49.882;8.664;2023-11-19T13:45:08;9.60;;;2.33;;
13085;SDS011;6609;49.882;8.664;2023-11-19T13:47:37;4.03;;;2.00;;
13085;SDS011;6609;49.882;8.664;2023-11-19T13:50:06;10.63;;;1.70;;
13085;SDS011;6609;49.882;8.664;2023-11-19T13:52:34;6.60;;;2.33;;
13085;SDS011;6609;49.882;8.664;2023-11-19T13:55:03;5.60;;;1.70;;
13085;SDS011;6609;49.882;8.664;2023-11-19T13:57:31;5.07;;;2.17;;
13085;SDS011;6609;49.882;8.664;2023-11-19T13:59:59;5.67;;;1.97;;
13085;SDS011;6609;49.882;8.664;2023-11-19T14:02:28;7.27;;;1.93;;
13085;SDS011;6609;49.882;8.664;2023-11-19T14:04:55;8.43;;;2.47;;
13085;SDS011;6609;49.882;8.664;2023-11-19T14:07:22;5.60;;;1.60;;
13085;SDS011;6609;49.882;8.664;2023-11-19T14:09:49;7.67;;;2.13;;
13085;SDS011;6609;49.882;8.664;2023-11-19T14:12:16;5.50;;;2.20;;
13085;SDS011;6609;49.882;8.664;2023-11-19T14:14:43;7.77;;;2.47;;
13085;SDS011;6609;49.882;8.664;2023-11-19T14:17:10;4.87;;;2.37;;
13085;SDS011;6609;49.882;8.664;2023-11-19T14:19:39;7.63;;;1.73;;
13085;SDS011;6609;49.882;8.664;2023-11-19T14:22:06;8.20;;;2.30;;
13085;SDS011;6609;49.882;8.664;2023-11-19T14:24:33;5.40;;;1.87;;
13085;SDS011;6609;49.882;8.664;2023-11-19T14:27:00;6.63;;;2.07;;
13085;SDS011;6609;49.882;8.664;2023-11-19T14:29:27;7.97;;;1.87;;
13085;SDS011;6609;49.882;8.664;2023-11-19T14:31:55;7.20;;;1.90;;
13085;SDS011;6609;49.882;8.664;2023-11-19T14:34:23;5.03;;;2.50;;
13085;SDS011;6609;49.882;8.664;2023-11-19T14:36:52;5.47;;;1.77;;
13085;SDS011;6609;49.882;8.664;2023-11-19T14:39:19;5.63;;;2.17;;
13085;SDS011;6609;49.882;8.664;2023-11-19T14:41:46;6.10;;;1.80;;
13085;SDS011;6609;49.882;8.664;2023-11-19T14:44:14;5.87;;;2.20;;
13085;SDS011;6609;49.882;8.664;2023-11-19T14:46:41;6.37;;;1.90;;
13085;SDS011;6609;49.882;8.664;2023-11-19T14:49:08;6.20;;;1.77;;
13085;SDS011;6609;49.882;8.664;2023-11-19T14:51:35;7.20;;;2.03;;
13085;SDS011;6609;49.882;8.664;2023-11-19T14:54:04;5.67;;;1.83;;
13085;SDS011;6609;49.882;8.664;2023-11-19T14:56:31;4.97;;;1.97;;
13085;SDS011;6609;49.882;8.664;2023-11-19T14:58:58;3.73;;;1.93;;
13085;SDS011;6609;49.882;8.664;2023-11-19T15:01:25;6.73;;;2.50;;
13085;SDS011;6609;49.882;8.664;2023-11-19T15:03:53;7.07;;;2.00;;
13085;SDS011;6609;49.882;8.664;2023-11-19T15:06:22;7.30;;;1.53;;
13085;SDS011;6609;49.882;8.664;2023-11-19T15:08:51;10.93;;;2.23;;
13085;SDS011;6609;49.882;8.664;2023-11-19T15:11:19;7.00;;;2.30;;
13085;SDS011;6609;49.882;8.664;2023-11-19T15:13:46;7.73;;;1.90;;
13085;SDS011;6609;49.882;8.664;2023-11-19T15:16:14;5.63;;;2.07;;